Time;durP1;ratioP1;P1;durP2;ratioP2;P2;SDS_P1;SDS_P2;PMS_P1;PMS_P2;Temp;Humidity;BMP_temperature;BMP_pressure;BME280_temperature;BME280_humidity;BME280_pressure;Samples;Min_cycle;Max_cycle;Signal;HPM_P1;HPM_P2
2023/03/01 00:01:11;;;;;;;42.78;15.98;;;-1.00;99.90;;;;;;5076850;28;20048;-76
2023/03/01 00:03:38;;;;;;;44.70;18.00;;;-1.10;99.90;;;;;;5076273;28;20047;-76
2023/03/01 00:06:04;;;;;;;46.13;18.02;;;-1.10;99.90;;;;;;5094432;28;20087;-75
2023/03/01 00:08:32;;;;;;;51.85;19.88;;;-1.10;99.90;;;;;;5059182;28;20056;-76
2023/03/01 00:11:13;;;;;;;44.47;17.65;;;-1.10;99.90;;;;;;5094281;28;20051;-76
2023/03/01 00:13:40;;;;;;;50.30;18.25;;;-1.10;99.90;;;;;;5094263;28;20083;-76
2023/03/01 00:16:09;;;;;;;50.00;18.65;;;-1.10;99.90;;;;;;5094191;28;20040;-76
2023/03/01 00:18:35;;;;;;;46.85;18.10;;;-1.10;99.90;;;;;;5094132;28;20048;-76
2023/03/01 00:21:01;;;;;;;44.92;18.83;;;-1.10;99.90;;;;;;5094642;28;20048;-77
2023/03/01 00:23:27;;;;;;;47.78;18.13;;;-1.10;99.90;;;;;;5093434;28;20040;-76
2023/03/01 00:25:53;;;;;;;44.20;18.58;;;-1.10;99.90;;;;;;5075533;28;20427;-76
2023/03/01 00:28:19;;;;;;;55.83;19.42;;;-1.20;99.90;;;;;;5094031;28;20048;-75
2023/03/01 00:30:45;;;;;;;52.43;20.30;;;-1.20;99.90;;;;;;5093856;28;20154;-76
2023/03/01 00:33:11;;;;;;;54.47;19.42;;;-1.10;99.90;;;;;;5076550;28;20294;-76
2023/03/01 00:35:37;;;;;;;51.88;20.25;;;-1.10;99.90;;;;;;5076041;28;20040;-76
2023/03/01 00:38:04;;;;;;;52.30;20.13;;;-1.00;99.90;;;;;;5076349;28;20040;-76
2023/03/01 00:40:33;;;;;;;53.33;20.50;;;-1.00;99.90;;;;;;5093818;28;20048;-79
2023/03/01 00:42:58;;;;;;;45.95;19.48;;;-0.90;99.90;;;;;;5076009;28;20058;-76
2023/03/01 00:45:25;;;;;;;60.60;22.17;;;-1.00;99.90;;;;;;5076009;28;20360;-76
2023/03/01 00:47:51;;;;;;;55.63;21.95;;;-0.90;99.90;;;;;;5093881;28;20051;-76
2023/03/01 00:50:18;;;;;;;47.63;20.38;;;-0.80;99.90;;;;;;5075488;28;20056;-77
2023/03/01 00:52:44;;;;;;;56.35;20.92;;;-0.80;99.90;;;;;;5075711;28;20372;-76
2023/03/01 00:55:11;;;;;;;58.28;22.08;;;-0.80;99.90;;;;;;5059839;28;20051;-77
2023/03/01 00:57:36;;;;;;;60.72;21.30;;;-0.80;99.90;;;;;;5075658;28;20105;-76
2023/03/01 01:00:04;;;;;;;57.15;20.95;;;-0.80;99.90;;;;;;5093525;28;20048;-75
2023/03/01 01:02:32;;;;;;;58.78;21.48;;;-0.90;99.90;;;;;;5075599;28;20044;-76
2023/03/01 01:04:58;;;;;;;58.42;21.65;;;-0.90;99.90;;;;;;5059431;28;20143;-76
2023/03/01 01:07:24;;;;;;;57.08;22.13;;;-1.00;99.90;;;;;;5075341;28;20543;-75
2023/03/01 01:09:50;;;;;;;71.25;23.85;;;-1.10;99.90;;;;;;5075978;28;20052;-76
2023/03/01 01:12:15;;;;;;;65.50;22.15;;;-1.00;99.90;;;;;;5093336;28;20054;-76
2023/03/01 01:14:41;;;;;;;62.28;21.95;;;-0.90;99.90;;;;;;5075691;28;20040;-76
2023/03/01 01:17:07;;;;;;;60.92;22.17;;;-1.00;99.90;;;;;;5093499;28;20044;-75
2023/03/01 01:19:32;;;;;;;67.05;24.00;;;-1.00;99.90;;;;;;5075619;28;20079;-76
2023/03/01 01:21:58;;;;;;;64.03;23.38;;;-1.00;99.90;;;;;;5093257;28;20471;-76
2023/03/01 01:24:24;;;;;;;61.35;21.85;;;-1.00;99.90;;;;;;5075785;28;20044;-78
2023/03/01 01:26:50;;;;;;;62.58;22.45;;;-1.10;99.90;;;;;;5093215;28;20040;-76
2023/03/01 01:29:16;;;;;;;65.60;23.00;;;-1.10;99.90;;;;;;5093205;28;20499;-76
2023/03/01 01:31:43;;;;;;;67.97;23.00;;;-1.20;99.90;;;;;;5075990;28;20055;-77
2023/03/01 01:34:14;;;;;;;70.18;23.65;;;-1.20;99.90;;;;;;5058991;28;20143;-78
2023/03/01 01:36:40;;;;;;;67.18;24.52;;;-1.20;99.90;;;;;;5079126;28;20051;-79
2023/03/01 01:39:05;;;;;;;72.50;24.25;;;-1.10;99.90;;;;;;5097433;28;20048;-77
2023/03/01 01:41:31;;;;;;;76.60;25.35;;;-1.20;99.90;;;;;;5079330;28;20052;-76
2023/03/01 01:44:18;;;;;;;77.80;23.80;;;-1.10;99.90;;;;;;5097016;28;20080;-77
2023/03/01 01:46:56;;;;;;;72.93;22.65;;;-1.20;99.90;;;;;;5079357;28;20052;-77
2023/03/01 01:49:27;;;;;;;70.72;24.88;;;-1.30;99.90;;;;;;5097360;28;20059;-76
2023/03/01 01:52:03;;;;;;;73.50;25.02;;;-1.20;99.90;;;;;;5078911;28;20056;-77
2023/03/01 01:54:37;;;;;;;79.80;24.95;;;-1.30;99.90;;;;;;5079816;28;20468;-76
2023/03/01 01:57:08;;;;;;;75.05;23.92;;;-1.30;99.90;;;;;;5097316;28;20052;-76
2023/03/01 01:59:35;;;;;;;75.28;23.85;;;-1.30;99.90;;;;;;5096872;28;20047;-76
2023/03/01 02:02:03;;;;;;;79.72;25.50;;;-1.40;99.90;;;;;;5078847;28;20048;-77
2023/03/01 02:04:30;;;;;;;76.88;24.75;;;-1.30;99.90;;;;;;5096708;28;20048;-76
2023/03/01 02:07:02;;;;;;;;;;;-1.30;99.90;;;;;;5062495;28;20067;-77
2023/03/01 02:09:30;;;;;;;74.05;23.40;;;-1.30;99.90;;;;;;5097027;28;20360;-77
2023/03/01 02:11:57;;;;;;;84.35;26.27;;;-1.40;99.90;;;;;;5078583;28;20132;-77
2023/03/01 02:14:22;;;;;;;86.22;26.60;;;-1.30;99.90;;;;;;5062061;28;20170;-76
2023/03/01 02:16:48;;;;;;;84.35;26.42;;;-1.40;99.90;;;;;;5062405;28;20472;-77
2023/03/01 02:19:32;;;;;;;74.93;24.65;;;-1.40;99.90;;;;;;5078380;28;20109;-76
2023/03/01 02:22:13;;;;;;;82.65;25.38;;;-1.40;99.90;;;;;;5078230;28;20048;-77
2023/03/01 02:25:06;;;;;;;71.82;23.83;;;-1.50;99.90;;;;;;5096462;28;20040;-76
2023/03/01 02:28:02;;;;;;;77.32;25.67;;;-1.50;99.90;;;;;;5097157;28;20135;-77
2023/03/01 02:30:29;;;;;;;73.85;24.92;;;-1.60;99.90;;;;;;5062268;28;20097;-77
2023/03/01 02:33:04;;;;;;;83.53;25.60;;;-1.70;99.90;;;;;;5061911;28;20098;-77
2023/03/01 02:35:37;;;;;;;79.05;24.90;;;-1.80;99.90;;;;;;5079057;28;20052;-76
2023/03/01 02:38:05;;;;;;;80.70;25.40;;;-1.90;99.90;;;;;;5078984;28;20559;-77
2023/03/01 02:40:35;;;;;;;85.68;25.50;;;-1.90;99.90;;;;;;5078324;28;20070;-78
2023/03/01 02:43:04;;;;;;;83.85;26.42;;;-2.00;99.90;;;;;;5078297;28;20048;-77
2023/03/01 02:45:29;;;;;;;83.68;24.50;;;-1.90;99.90;;;;;;5078055;28;20078;-77
2023/03/01 02:47:56;;;;;;;216.40;31.48;;;-1.90;99.90;;;;;;5060552;28;20048;-77
2023/03/01 02:50:28;;;;;;;302.02;38.28;;;-1.90;99.90;;;;;;5078066;28;20044;-76
2023/03/01 02:53:09;;;;;;;403.65;43.75;;;-1.80;99.90;;;;;;5095522;28;20048;-79
2023/03/01 02:55:34;;;;;;;294.45;37.13;;;-1.80;99.90;;;;;;5077426;28;20044;-80
2023/03/01 02:58:03;;;;;;;193.98;29.95;;;-1.80;99.90;;;;;;5077792;28;20048;-81
2023/03/01 03:00:34;;;;;;;393.05;42.90;;;-1.80;99.90;;;;;;5078776;28;20066;-81
2023/03/01 03:03:00;;;;;;;213.95;31.08;;;-1.70;99.90;;;;;;5096513;28;20127;-79
2023/03/01 03:05:29;;;;;;;388.15;47.35;;;-1.70;99.90;;;;;;5062098;28;20511;-78
2023/03/01 03:07:55;;;;;;;236.57;35.30;;;-1.70;99.90;;;;;;5077470;28;20455;-81
2023/03/01 03:10:24;;;;;;;182.30;32.85;;;-1.70;99.90;;;;;;5062004;28;20078;-80
2023/03/01 03:12:56;;;;;;;233.77;37.45;;;-1.90;99.90;;;;;;5077638;28;20048;-80
2023/03/01 03:15:22;;;;;;;190.23;33.40;;;-1.90;99.90;;;;;;5096397;28;20117;-80
2023/03/01 03:17:49;;;;;;;198.80;31.30;;;-1.90;99.90;;;;;;5061245;28;20044;-80
2023/03/01 03:20:20;;;;;;;162.73;31.15;;;-2.00;99.90;;;;;;5077624;28;20052;-81
2023/03/01 03:22:49;;;;;;;271.70;37.20;;;-2.10;99.90;;;;;;5077670;28;20548;-80
2023/03/01 03:25:16;;;;;;;237.57;32.88;;;-2.10;99.90;;;;;;5077438;28;20039;-80
2023/03/01 03:27:46;;;;;;;198.02;30.23;;;-2.10;99.90;;;;;;5077565;28;20044;-79
2023/03/01 03:30:15;;;;;;;279.13;39.58;;;-2.10;99.90;;;;;;5078001;28;20048;-80
2023/03/01 03:32:51;;;;;;;216.82;32.90;;;-2.10;99.90;;;;;;5078232;28;20040;-81
2023/03/01 03:35:24;;;;;;;133.50;29.42;;;-2.10;99.90;;;;;;5061303;28;20102;-81
2023/03/01 03:38:03;;;;;;;110.30;25.42;;;-2.20;99.90;;;;;;5060975;28;20400;-80
2023/03/01 03:40:41;;;;;;;389.90;48.15;;;-2.20;99.90;;;;;;5061477;28;20123;-79
2023/03/01 03:43:09;;;;;;;340.05;43.03;;;-2.30;99.90;;;;;;5061740;28;20048;-79
2023/03/01 03:45:36;;;;;;;128.68;27.20;;;-2.30;99.90;;;;;;5061340;28;20072;-80
2023/03/01 03:48:04;;;;;;;200.93;31.38;;;-2.40;99.90;;;;;;5079758;28;20075;-80
2023/03/01 03:50:30;;;;;;;149.52;26.58;;;-2.50;99.90;;;;;;5061686;28;20044;-79
2023/03/01 03:52:56;;;;;;;135.73;24.92;;;-2.60;99.90;;;;;;5062357;28;20436;-78
2023/03/01 03:55:22;;;;;;;62.60;20.95;;;-2.60;99.90;;;;;;5061844;28;20083;-78
2023/03/01 03:57:51;;;;;;;66.15;21.10;;;-2.70;99.90;;;;;;5045361;28;20514;-77
2023/03/01 04:00:23;;;;;;;61.80;20.98;;;-2.70;99.90;;;;;;5078167;28;20144;-80
2023/03/01 04:02:50;;;;;;;61.13;22.15;;;-2.70;99.90;;;;;;5078078;28;20052;-78
2023/03/01 04:05:17;;;;;;;65.78;21.73;;;-2.70;99.90;;;;;;5061160;28;20052;-78
2023/03/01 04:07:44;;;;;;;65.68;22.05;;;-2.80;99.90;;;;;;5044019;28;20135;-79
2023/03/01 04:10:13;;;;;;;78.32;25.45;;;-2.80;99.90;;;;;;5043743;28;20139;-79
2023/03/01 04:12:39;;;;;;;71.70;24.23;;;-2.80;99.90;;;;;;5060771;28;20040;-79
2023/03/01 04:15:12;;;;;;;62.30;21.95;;;-2.90;99.90;;;;;;5059943;28;20114;-78
2023/03/01 04:17:47;;;;;;;67.80;22.48;;;-2.90;99.90;;;;;;5060611;28;20051;-79
2023/03/01 04:20:17;;;;;;;68.78;23.85;;;-2.90;99.90;;;;;;5095141;28;20055;-79
2023/03/01 04:22:46;;;;;;;63.05;22.05;;;-2.90;99.90;;;;;;5076766;28;20055;-79
2023/03/01 04:25:14;;;;;;;66.70;22.02;;;-2.90;99.90;;;;;;5094479;28;20119;-79
2023/03/01 04:27:40;;;;;;;59.88;20.27;;;-2.90;99.90;;;;;;5059755;28;20055;-80
2023/03/01 04:30:08;;;;;;;65.32;22.02;;;-3.00;99.90;;;;;;5095069;28;20066;-81
2023/03/01 04:32:34;;;;;;;65.13;22.17;;;-2.90;99.90;;;;;;5077154;28;20059;-79
2023/03/01 04:35:00;;;;;;;73.57;23.58;;;-2.90;99.90;;;;;;5061280;28;20048;-78
2023/03/01 04:37:26;;;;;;;75.03;24.40;;;-2.90;99.90;;;;;;5062046;28;20048;-79
2023/03/01 04:39:52;;;;;;;67.90;22.88;;;-2.90;99.90;;;;;;5080936;28;20174;-77
2023/03/01 04:42:19;;;;;;;63.72;22.17;;;-2.90;99.90;;;;;;5097434;28;20048;-77
2023/03/01 04:44:45;;;;;;;60.63;21.30;;;-2.90;99.90;;;;;;5063429;28;20050;-80
2023/03/01 04:47:11;;;;;;;63.67;21.88;;;-2.90;99.90;;;;;;5084654;28;20040;-79
2023/03/01 04:49:37;;;;;;;61.50;20.05;;;-3.00;99.90;;;;;;5084751;28;20044;-78
2023/03/01 04:52:04;;;;;;;62.67;20.58;;;-3.10;99.90;;;;;;5069540;28;20111;-78
2023/03/01 04:54:31;;;;;;;56.63;19.42;;;-3.10;99.90;;;;;;5069768;28;20043;-78
2023/03/01 04:56:57;;;;;;;58.70;20.00;;;-3.10;99.90;;;;;;5069161;28;20048;-78
2023/03/01 04:59:23;;;;;;;58.85;20.33;;;-3.10;99.90;;;;;;5070898;28;20055;-78
2023/03/01 05:01:50;;;;;;;58.95;20.17;;;-3.10;99.90;;;;;;5054972;28;20153;-78
2023/03/01 05:04:16;;;;;;;58.55;19.90;;;-3.10;99.90;;;;;;5087932;28;20055;-78
2023/03/01 05:06:41;;;;;;;54.00;18.55;;;-3.20;99.90;;;;;;5087280;28;20416;-77
2023/03/01 05:09:07;;;;;;;56.42;20.08;;;-3.10;99.90;;;;;;5069637;28;20377;-83
2023/03/01 05:11:35;;;;;;;57.35;20.20;;;-3.10;99.90;;;;;;5101389;28;20049;-77
2023/03/01 05:14:08;;;;;;;59.05;20.30;;;-3.10;99.90;;;;;;5066107;28;20036;-78
2023/03/01 05:16:35;;;;;;;58.63;18.98;;;-3.20;99.90;;;;;;5073362;28;20230;-83
2023/03/01 05:19:11;;;;;;;;;;;-3.20;99.90;;;;;;5070247;28;20048;-78
2023/03/01 05:22:01;;;;;;;56.88;19.00;;;-3.30;99.90;;;;;;5064084;28;19920;-77
2023/03/01 05:24:27;;;;;;;53.92;18.95;;;-3.20;99.90;;;;;;5079148;28;20491;-79
2023/03/01 05:26:52;;;;;;;60.38;20.80;;;-3.20;99.90;;;;;;5050397;28;20060;-77
2023/03/01 05:29:24;;;;;;;55.45;19.70;;;-3.20;99.90;;;;;;5050805;28;20103;-77
2023/03/01 05:31:59;;;;;;;60.80;20.83;;;-3.20;99.90;;;;;;5067510;28;20388;-77
2023/03/01 05:34:26;;;;;;;61.80;20.38;;;-3.20;99.90;;;;;;5081543;28;20055;-79
2023/03/01 05:36:53;;;;;;;56.80;19.80;;;-3.20;99.90;;;;;;5044736;28;20047;-80
2023/03/01 05:39:24;;;;;;;63.42;20.98;;;-3.20;99.90;;;;;;5060182;28;20067;-78
2023/03/01 05:41:59;;;;;;;61.45;20.52;;;-3.30;99.90;;;;;;5062068;28;20384;-78
2023/03/01 05:44:28;;;;;;;;;;;-3.30;99.90;;;;;;5081710;28;20392;-77
2023/03/01 05:46:54;;;;;;;57.75;20.00;;;-3.30;99.90;;;;;;5087298;28;19927;-78
2023/03/01 05:49:23;;;;;;;57.40;19.80;;;-3.30;99.90;;;;;;5070269;28;20044;-78
2023/03/01 05:51:52;;;;;;;54.65;19.85;;;-3.30;99.90;;;;;;5066855;28;20446;-79
2023/03/01 05:54:18;;;;;;;56.30;20.45;;;-3.40;99.90;;;;;;5087648;28;20476;-78
2023/03/01 05:56:44;;;;;;;65.63;21.15;;;-3.40;99.90;;;;;;5090288;28;20047;-78
2023/03/01 05:59:11;;;;;;;68.40;22.10;;;-3.30;99.90;;;;;;5073175;28;20408;-77
2023/03/01 06:01:37;;;;;;;63.88;22.42;;;-3.40;99.90;;;;;;5085268;28;20040;-80
2023/03/01 06:04:04;;;;;;;70.30;24.30;;;-3.40;99.90;;;;;;5084841;28;20480;-78
2023/03/01 06:06:33;;;;;;;74.60;26.98;;;-3.50;99.90;;;;;;5063928;28;20048;-79
2023/03/01 06:08:59;;;;;;;73.95;26.65;;;-3.50;99.90;;;;;;5075569;28;20071;-80
2023/03/01 06:11:25;;;;;;;74.85;25.90;;;-3.40;99.90;;;;;;5042516;28;20048;-78
2023/03/01 06:13:50;;;;;;;71.90;24.58;;;-3.50;99.90;;;;;;5044250;28;20044;-79
2023/03/01 06:16:16;;;;;;;75.65;26.40;;;-3.50;99.90;;;;;;5049494;28;20044;-83
2023/03/01 06:18:42;;;;;;;77.00;25.83;;;-3.50;99.90;;;;;;5062754;28;20052;-78
2023/03/01 06:21:08;;;;;;;82.85;27.98;;;-3.50;99.90;;;;;;5077450;28;20047;-80
2023/03/01 06:23:34;;;;;;;80.70;27.73;;;-3.40;99.90;;;;;;5080104;28;20055;-79
2023/03/01 06:26:00;;;;;;;89.53;31.17;;;-3.50;99.90;;;;;;5078980;28;20044;-77
2023/03/01 06:28:26;;;;;;;85.32;31.25;;;-3.50;99.90;;;;;;5079438;28;20056;-79
2023/03/01 06:30:53;;;;;;;90.13;32.70;;;-3.50;99.90;;;;;;5046211;28;20048;-79
2023/03/01 06:33:20;;;;;;;92.32;30.92;;;-3.50;99.90;;;;;;5046495;28;20075;-82
2023/03/01 06:35:46;;;;;;;86.73;31.50;;;-3.40;99.90;;;;;;5079205;28;20048;-78
2023/03/01 06:38:14;;;;;;;87.55;30.00;;;-3.40;99.90;;;;;;5082468;28;20145;-79
2023/03/01 06:40:41;;;;;;;80.50;25.52;;;-3.40;99.90;;;;;;5082314;28;20128;-79
2023/03/01 06:43:07;;;;;;;67.03;22.67;;;-3.40;99.90;;;;;;5062691;28;20044;-79
2023/03/01 06:45:33;;;;;;;71.47;22.20;;;-3.40;99.90;;;;;;5048418;28;20055;-79
2023/03/01 06:48:06;;;;;;;69.70;22.92;;;-3.30;99.90;;;;;;5082526;28;20036;-79
2023/03/01 06:50:32;;;;;;;65.88;21.67;;;-3.40;99.90;;;;;;5082348;28;20442;-80
2023/03/01 06:52:58;;;;;;;66.57;22.77;;;-3.30;99.90;;;;;;5080290;28;20052;-78
2023/03/01 06:55:24;;;;;;;70.60;23.63;;;-3.30;99.90;;;;;;5079941;28;20044;-83
2023/03/01 06:57:57;;;;;;;65.43;23.08;;;-3.20;99.90;;;;;;5062411;28;20051;-79
2023/03/01 07:00:24;;;;;;;72.97;24.60;;;-3.20;99.90;;;;;;5045828;28;20423;-83
2023/03/01 07:02:50;;;;;;;77.57;25.15;;;-3.10;99.90;;;;;;5061895;28;20080;-79
2023/03/01 07:05:19;;;;;;;72.20;25.27;;;-3.10;99.90;;;;;;5061714;28;20100;-78
2023/03/01 07:07:45;;;;;;;70.65;25.98;;;-3.10;99.90;;;;;;5061819;28;20097;-80
2023/03/01 07:10:11;;;;;;;82.45;25.73;;;-3.00;99.90;;;;;;5096017;28;20120;-80
2023/03/01 07:12:37;;;;;;;72.03;25.40;;;-3.00;99.90;;;;;;5061494;28;20048;-77
2023/03/01 07:15:04;;;;;;;77.75;26.45;;;-2.90;99.90;;;;;;5079273;28;20138;-78
2023/03/01 07:17:30;;;;;;;80.45;27.00;;;-2.90;99.90;;;;;;5061759;28;20040;-78
2023/03/01 07:19:56;;;;;;;79.97;28.10;;;-2.80;99.90;;;;;;5045708;28;20071;-78
2023/03/01 07:22:22;;;;;;;86.10;28.58;;;-2.70;99.90;;;;;;5061515;28;20052;-78
2023/03/01 07:24:48;;;;;;;83.40;28.38;;;-2.60;99.90;;;;;;5044382;28;20104;-78
2023/03/01 07:27:14;;;;;;;101.88;37.53;;;-2.50;99.90;;;;;;5077250;28;20444;-78
2023/03/01 07:29:39;;;;;;;98.40;39.20;;;-2.40;99.90;;;;;;5095201;28;20044;-77
2023/03/01 07:32:06;;;;;;;98.40;37.13;;;-2.30;99.90;;;;;;5060478;28;20048;-78
2023/03/01 07:34:32;;;;;;;90.32;30.55;;;-2.20;99.90;;;;;;5077417;28;20058;-77
2023/03/01 07:36:57;;;;;;;87.82;30.10;;;-2.10;99.90;;;;;;5060620;28;20052;-77
2023/03/01 07:39:24;;;;;;;103.10;33.22;;;-2.10;99.90;;;;;;5060453;28;20040;-77
2023/03/01 07:41:51;;;;;;;119.05;37.75;;;-2.00;99.90;;;;;;5060740;28;20122;-78
2023/03/01 07:44:17;;;;;;;121.70;36.85;;;-1.90;99.90;;;;;;5060381;28;20051;-77
2023/03/01 07:46:43;;;;;;;108.65;34.80;;;-1.80;99.90;;;;;;5060853;28;20452;-78
2023/03/01 07:49:09;;;;;;;109.00;35.53;;;-1.80;99.90;;;;;;5076695;28;20060;-76
2023/03/01 07:51:35;;;;;;;108.03;34.80;;;-1.60;99.90;;;;;;5076873;28;20070;-77
2023/03/01 07:54:00;;;;;;;113.50;35.22;;;-1.60;99.90;;;;;;5060104;28;20043;-76
2023/03/01 07:56:26;;;;;;;108.13;35.53;;;-1.40;99.90;;;;;;5059974;28;20043;-77
2023/03/01 07:58:52;;;;;;;91.00;32.58;;;-1.30;99.90;;;;;;5043495;28;20048;-76
2023/03/01 08:01:19;;;;;;;87.68;31.25;;;-1.20;99.90;;;;;;5043518;28;20043;-76
2023/03/01 08:03:46;;;;;;;90.10;32.60;;;-1.10;99.90;;;;;;5076580;28;20052;-75
2023/03/01 08:06:14;;;;;;;89.82;31.80;;;-0.90;99.90;;;;;;5076337;28;20408;-79
2023/03/01 08:08:39;;;;;;;96.78;33.78;;;-0.90;99.90;;;;;;5076551;28;20048;-76
2023/03/01 08:11:06;;;;;;;90.32;32.97;;;-0.80;99.90;;;;;;5076021;28;20056;-78
2023/03/01 08:13:32;;;;;;;98.90;32.40;;;-0.70;99.90;;;;;;5076895;28;20056;-80
2023/03/01 08:16:03;;;;;;;90.97;34.83;;;-0.60;99.90;;;;;;5076144;28;20130;-76
2023/03/01 08:18:28;;;;;;;88.13;33.38;;;-0.50;99.90;;;;;;5076949;28;20377;-77
2023/03/01 08:20:54;;;;;;;90.75;32.58;;;-0.40;99.90;;;;;;5096219;28;20069;-78
2023/03/01 08:23:20;;;;;;;86.90;32.22;;;-0.50;99.90;;;;;;5029033;28;20048;-78
2023/03/01 08:25:46;;;;;;;92.43;33.35;;;-0.30;99.90;;;;;;5064898;28;20040;-81
2023/03/01 08:28:11;;;;;;;92.32;34.63;;;-0.20;99.90;;;;;;5064126;28;20058;-79
2023/03/01 08:30:37;;;;;;;101.13;33.95;;;-0.10;99.90;;;;;;5047441;28;20056;-82
2023/03/01 08:33:03;;;;;;;91.70;31.67;;;0.10;99.90;;;;;;5067800;28;20050;-79
2023/03/01 08:35:29;;;;;;;100.07;33.75;;;0.10;99.90;;;;;;5067022;28;20044;-79
2023/03/01 08:37:54;;;;;;;102.85;33.25;;;0.20;99.90;;;;;;5050623;28;20135;-79
2023/03/01 08:40:20;;;;;;;83.63;30.80;;;0.30;99.90;;;;;;5050631;28;20051;-80
2023/03/01 08:42:46;;;;;;;92.85;31.20;;;0.30;99.90;;;;;;5063417;28;20063;-79
2023/03/01 08:45:13;;;;;;;103.00;34.33;;;0.40;99.90;;;;;;5029544;28;20130;-80
2023/03/01 08:47:39;;;;;;;82.10;27.52;;;0.50;99.90;;;;;;5076953;28;20496;-83
2023/03/01 08:50:05;;;;;;;74.88;27.73;;;0.60;99.90;;;;;;5077046;28;20137;-78
2023/03/01 08:52:32;;;;;;;82.22;28.17;;;0.70;99.90;;;;;;5077193;28;20128;-79
2023/03/01 08:55:01;;;;;;;87.30;27.40;;;0.70;99.90;;;;;;5059900;28;20113;-80
2023/03/01 08:57:26;;;;;;;72.25;28.63;;;0.80;99.90;;;;;;5060137;28;20471;-79
2023/03/01 08:59:52;;;;;;;77.03;28.77;;;0.90;99.90;;;;;;5059744;28;20087;-78
2023/03/01 09:02:21;;;;;;;70.85;28.35;;;1.00;99.90;;;;;;5060772;28;20448;-78
2023/03/01 09:04:47;;;;;;;80.07;29.38;;;1.00;99.90;;;;;;5059737;28;20056;-78
2023/03/01 09:07:12;;;;;;;75.75;29.98;;;1.10;99.90;;;;;;5059315;28;20502;-79
2023/03/01 09:09:38;;;;;;;77.63;28.38;;;1.30;99.90;;;;;;5058748;28;20545;-78
2023/03/01 09:12:04;;;;;;;84.80;29.77;;;1.40;99.90;;;;;;5075858;28;20048;-79
2023/03/01 09:14:30;;;;;;;83.10;29.63;;;1.50;99.90;;;;;;5058991;28;20047;-78
2023/03/01 09:16:56;;;;;;;73.32;26.58;;;1.60;99.90;;;;;;5075489;28;20036;-80
2023/03/01 09:19:22;;;;;;;66.32;22.58;;;1.70;99.90;;;;;;5093707;28;20054;-79
2023/03/01 09:21:55;;;;;;;61.30;20.65;;;1.80;99.90;;;;;;5075775;28;20044;-80
2023/03/01 09:24:24;;;;;;;59.88;20.92;;;2.00;99.90;;;;;;5044735;28;20052;-81
2023/03/01 09:26:52;;;;;;;63.55;20.23;;;2.10;99.90;;;;;;5076640;28;20044;-78
2023/03/01 09:29:18;;;;;;;59.97;21.00;;;2.20;99.90;;;;;;5068988;28;20059;-78
2023/03/01 09:31:44;;;;;;;55.25;19.90;;;2.30;99.90;;;;;;5056799;28;20047;-82
2023/03/01 09:34:10;;;;;;;52.72;20.13;;;2.40;99.90;;;;;;5100394;28;20040;-79
2023/03/01 09:36:36;;;;;;;58.97;19.30;;;2.50;99.90;;;;;;5065418;28;20036;-79
2023/03/01 09:39:05;;;;;;;45.03;15.07;;;2.70;99.90;;;;;;5090044;28;20044;-79
2023/03/01 09:41:49;;;;;;;48.75;14.55;;;2.80;99.90;;;;;;5106664;28;20085;-78
2023/03/01 09:44:36;;;;;;;41.20;14.18;;;3.00;99.90;;;;;;5089787;28;20051;-79
2023/03/01 09:47:03;;;;;;;45.17;15.45;;;3.10;99.90;;;;;;5108989;28;20119;-79
2023/03/01 09:49:33;;;;;;;46.28;16.70;;;3.20;99.90;;;;;;5089834;28;20048;-80
2023/03/01 09:52:21;;;;;;;47.40;16.90;;;3.20;99.90;;;;;;5106662;28;20040;-80
2023/03/01 09:54:49;;;;;;;28.58;9.25;;;3.30;99.90;;;;;;5089181;28;20167;-82
2023/03/01 09:57:26;;;;;;;34.17;9.20;;;3.40;99.90;;;;;;5089153;28;20051;-79
2023/03/01 10:00:06;;;;;;;28.55;8.35;;;3.50;99.90;;;;;;5085447;28;20055;-79
2023/03/01 10:02:49;;;;;;;31.60;9.82;;;3.60;99.90;;;;;;5101409;28;20129;-79
2023/03/01 10:05:41;;;;;;;26.38;7.80;;;3.80;99.90;;;;;;5098402;28;20051;-79
2023/03/01 10:08:30;;;;;;;26.05;8.75;;;3.90;99.90;;;;;;5097081;28;20052;-77
2023/03/01 10:10:57;;;;;;;32.90;9.63;;;3.90;99.90;;;;;;5078330;28;20074;-78
2023/03/01 10:13:54;;;;;;;32.20;9.77;;;4.00;99.90;;;;;;5062474;28;20044;-80
2023/03/01 10:16:35;;;;;;;47.08;8.48;;;4.00;99.90;;;;;;5062623;28;20105;-81
2023/03/01 10:19:04;;;;;;;31.75;9.73;;;4.10;99.90;;;;;;5096444;28;20055;-81
2023/03/01 10:21:31;;;;;;;28.88;11.23;;;4.00;99.90;;;;;;5061838;28;20494;-79
2023/03/01 10:24:11;;;;;;;24.50;8.50;;;4.10;99.90;;;;;;5096479;28;20507;-79
2023/03/01 10:26:53;;;;;;;25.17;6.90;;;4.10;99.90;;;;;;5062590;28;20087;-78
2023/03/01 10:30:03;;;;;;;31.08;9.43;;;4.30;99.90;;;;;;5097041;28;20088;-79
2023/03/01 10:32:29;;;;;;;31.02;9.27;;;4.40;99.90;;;;;;5071802;28;20108;-78
2023/03/01 10:34:56;;;;;;;29.80;11.30;;;4.30;99.90;;;;;;5097164;28;20055;-79
2023/03/01 10:37:25;;;;;;;34.75;12.07;;;4.40;99.90;;;;;;5062034;28;20117;-79
2023/03/01 10:40:08;;;;;;;29.02;10.13;;;4.40;99.90;;;;;;5062831;28;20149;-80
2023/03/01 10:42:39;;;;;;;31.95;9.63;;;4.40;99.90;;;;;;5063102;28;20056;-79
2023/03/01 10:45:26;;;;;;;27.55;8.88;;;4.50;99.90;;;;;;5062644;28;20345;-78
2023/03/01 10:48:25;;;;;;;27.20;9.40;;;4.60;99.90;;;;;;5079205;28;20129;-80
2023/03/01 10:51:17;;;;;;;26.40;8.15;;;4.60;99.90;;;;;;5068184;28;20063;-79
2023/03/01 10:53:50;;;;;;;33.85;9.80;;;4.60;99.90;;;;;;5079974;28;20052;-79
2023/03/01 10:56:16;;;;;;;28.35;9.93;;;4.70;99.90;;;;;;5082001;28;20330;-80
2023/03/01 10:58:59;;;;;;;27.73;8.43;;;4.70;99.90;;;;;;5047980;28;20134;-80
2023/03/01 11:01:35;;;;;;;25.75;8.73;;;4.70;99.90;;;;;;5098247;28;20507;-79
2023/03/01 11:04:07;;;;;;;23.23;8.57;;;4.80;99.90;;;;;;5079601;28;20051;-77
2023/03/01 11:06:34;;;;;;;26.05;8.85;;;5.00;99.90;;;;;;5096386;28;20105;-79
2023/03/01 11:09:15;;;;;;;19.92;8.48;;;4.90;99.90;;;;;;5095348;28;20377;-80
2023/03/01 11:11:41;;;;;;;17.98;6.78;;;4.90;99.90;;;;;;5096709;28;20430;-79
2023/03/01 11:14:20;;;;;;;22.05;7.20;;;5.00;99.90;;;;;;5095769;28;20055;-79
2023/03/01 11:16:57;;;;;;;19.50;7.03;;;5.00;99.90;;;;;;5077772;28;20468;-79
2023/03/01 11:19:23;;;;;;;19.73;6.35;;;5.10;99.90;;;;;;5045122;28;20130;-79
2023/03/01 11:22:01;;;;;;;22.10;7.22;;;5.20;99.90;;;;;;5061077;28;20081;-78
2023/03/01 11:24:39;;;;;;;21.02;6.03;;;5.30;99.90;;;;;;5077757;28;20052;-79
2023/03/01 11:27:29;;;;;;;20.92;6.90;;;5.30;99.90;;;;;;5077487;28;20040;-79
2023/03/01 11:30:07;;;;;;;20.40;7.18;;;5.30;99.90;;;;;;5095119;28;20401;-78
2023/03/01 11:32:58;;;;;;;16.73;6.28;;;5.30;99.90;;;;;;5095546;28;20056;-81
2023/03/01 11:35:28;;;;;;;19.30;7.30;;;5.40;99.90;;;;;;5095318;28;20052;-80
2023/03/01 11:38:15;;;;;;;28.00;9.15;;;5.40;99.90;;;;;;5095728;28;20426;-78
2023/03/01 11:40:48;;;;;;;19.65;7.28;;;5.50;99.90;;;;;;5077610;28;20392;-78
2023/03/01 11:43:24;;;;;;;20.05;7.07;;;5.50;99.90;;;;;;5077702;28;20356;-78
2023/03/01 11:45:50;;;;;;;23.58;7.28;;;5.60;99.90;;;;;;5095797;28;20143;-79
2023/03/01 11:48:42;;;;;;;19.95;6.28;;;5.70;99.90;;;;;;5077178;28;20139;-79
2023/03/01 11:51:19;;;;;;;19.98;6.65;;;5.80;99.90;;;;;;5077189;28;20052;-80
2023/03/01 11:53:56;;;;;;;21.83;5.80;;;5.80;99.90;;;;;;5095772;28;20372;-78
2023/03/01 11:56:34;;;;;;;21.13;7.00;;;5.90;99.90;;;;;;5095717;28;20054;-81
2023/03/01 11:59:28;;;;;;;17.63;6.85;;;5.90;99.90;;;;;;5094435;28;20051;-78
2023/03/01 12:02:18;;;;;;;17.40;5.90;;;5.80;99.90;;;;;;5069764;28;20056;-80
2023/03/01 12:05:02;;;;;;;22.27;6.80;;;5.80;99.90;;;;;;5060145;28;20061;-77
2023/03/01 12:07:34;;;;;;;15.80;6.25;;;5.90;99.90;;;;;;5076681;28;20039;-78
2023/03/01 12:10:25;;;;;;;22.40;7.65;;;6.00;99.90;;;;;;5094371;28;20056;-77
2023/03/01 12:12:51;;;;;;;23.45;7.72;;;6.00;99.90;;;;;;5060266;28;20506;-79
2023/03/01 12:15:45;;;;;;;22.13;7.30;;;6.00;99.90;;;;;;5077322;28;20135;-78
2023/03/01 12:18:32;;;;;;;20.00;7.50;;;6.00;99.90;;;;;;5094192;28;20067;-80
2023/03/01 12:21:18;;;;;;;23.50;7.93;;;6.10;99.90;;;;;;5076658;28;20094;-77
2023/03/01 12:24:03;;;;;;;20.15;7.13;;;6.10;99.90;;;;;;5076371;28;20117;-78
2023/03/01 12:26:43;;;;;;;21.05;8.15;;;6.20;99.90;;;;;;5077338;28;20395;-78
2023/03/01 12:29:25;;;;;;;25.73;8.20;;;6.20;99.90;;;;;;5094219;28;20048;-81
2023/03/01 12:32:16;;;;;;;21.80;7.43;;;6.20;99.90;;;;;;5059691;28;20058;-77
2023/03/01 12:35:40;;;;;;;21.23;7.45;;;6.20;99.90;;;;;;5076429;28;20485;-81
2023/03/01 12:38:26;;;;;;;22.05;7.60;;;6.20;99.90;;;;;;5050725;28;20048;-80
2023/03/01 12:41:01;;;;;;;21.50;7.55;;;6.20;99.90;;;;;;5075120;28;20063;-74
2023/03/01 12:44:03;;;;;;;22.40;8.27;;;6.30;99.90;;;;;;5076289;28;20515;-78
2023/03/01 12:46:52;;;;;;;17.88;7.25;;;6.20;99.90;;;;;;5075806;28;20036;-80
2023/03/01 12:49:52;;;;;;;19.52;7.22;;;6.20;99.90;;;;;;5084735;28;20081;-79